sensor_id;sensor_type;location;lat;lon;timestamp;P1;durP1;ratioP1;P2;durP2;ratioP2
11187;SDS011;5650;52.700;7.306;2023-09-19T00:00:58;5.88;;;1.80;;
11187;SDS011;5650;52.700;7.306;2023-09-19T00:03:25;5.32;;;1.65;;
11187;SDS011;5650;52.700;7.306;2023-09-19T00:06:03;4.15;;;1.58;;
11187;SDS011;5650;52.700;7.306;2023-09-19T00:08:32;3.13;;;1.67;;
11187;SDS011;5650;52.700;7.306;2023-09-19T00:11:00;5.93;;;1.92;;
11187;SDS011;5650;52.700;7.306;2023-09-19T00:13:34;9.73;;;1.77;;
11187;SDS011;5650;52.700;7.306;2023-09-19T00:16:08;4.93;;;1.92;;
11187;SDS011;5650;52.700;7.306;2023-09-19T00:18:36;3.33;;;1.40;;
11187;SDS011;5650;52.700;7.306;2023-09-19T00:21:06;5.68;;;1.48;;
11187;SDS011;5650;52.700;7.306;2023-09-19T00:23:38;11.23;;;1.67;;
11187;SDS011;5650;52.700;7.306;2023-09-19T00:26:09;4.95;;;1.80;;
11187;SDS011;5650;52.700;7.306;2023-09-19T00:31:33;4.95;;;1.65;;
11187;SDS011;5650;52.700;7.306;2023-09-19T00:34:07;6.95;;;2.00;;
11187;SDS011;5650;52.700;7.306;2023-09-19T00:36:35;7.15;;;2.15;;
11187;SDS011;5650;52.700;7.306;2023-09-19T00:39:03;4.18;;;1.77;;
11187;SDS011;5650;52.700;7.306;2023-09-19T00:41:31;7.50;;;2.38;;
11187;SDS011;5650;52.700;7.306;2023-09-19T00:44:09;6.47;;;2.25;;
11187;SDS011;5650;52.700;7.306;2023-09-19T00:46:37;7.20;;;2.53;;
11187;SDS011;5650;52.700;7.306;2023-09-19T00:49:04;8.80;;;2.58;;
11187;SDS011;5650;52.700;7.306;2023-09-19T00:51:35;9.80;;;2.20;;
11187;SDS011;5650;52.700;7.306;2023-09-19T00:54:02;9.80;;;2.08;;
11187;SDS011;5650;52.700;7.306;2023-09-19T00:56:30;7.70;;;2.25;;
11187;SDS011;5650;52.700;7.306;2023-09-19T01:02:30;7.50;;;2.55;;
11187;SDS011;5650;52.700;7.306;2023-09-19T01:04:58;6.93;;;1.92;;
11187;SDS011;5650;52.700;7.306;2023-09-19T01:07:32;9.02;;;2.45;;
11187;SDS011;5650;52.700;7.306;2023-09-19T01:10:03;7.72;;;2.42;;
11187;SDS011;5650;52.700;7.306;2023-09-19T01:12:43;7.03;;;2.30;;
11187;SDS011;5650;52.700;7.306;2023-09-19T01:15:20;6.30;;;1.98;;
11187;SDS011;5650;52.700;7.306;2023-09-19T01:17:59;9.65;;;2.55;;
11187;SDS011;5650;52.700;7.306;2023-09-19T01:20:37;5.57;;;1.88;;
11187;SDS011;5650;52.700;7.306;2023-09-19T01:23:13;7.47;;;2.05;;
11187;SDS011;5650;52.700;7.306;2023-09-19T01:28:51;5.22;;;1.90;;
11187;SDS011;5650;52.700;7.306;2023-09-19T01:31:22;8.07;;;2.17;;
11187;SDS011;5650;52.700;7.306;2023-09-19T01:33:58;7.47;;;2.50;;
11187;SDS011;5650;52.700;7.306;2023-09-19T01:36:27;9.63;;;2.92;;
11187;SDS011;5650;52.700;7.306;2023-09-19T01:38:55;8.95;;;2.65;;
11187;SDS011;5650;52.700;7.306;2023-09-19T01:44:29;9.45;;;2.45;;
11187;SDS011;5650;52.700;7.306;2023-09-19T01:47:12;11.35;;;2.50;;
11187;SDS011;5650;52.700;7.306;2023-09-19T01:49:57;7.82;;;2.42;;
11187;SDS011;5650;52.700;7.306;2023-09-19T01:52:45;8.23;;;2.47;;
11187;SDS011;5650;52.700;7.306;2023-09-19T01:55:20;11.23;;;2.75;;
11187;SDS011;5650;52.700;7.306;2023-09-19T01:57:51;10.30;;;2.60;;
11187;SDS011;5650;52.700;7.306;2023-09-19T02:00:41;8.38;;;2.63;;
11187;SDS011;5650;52.700;7.306;2023-09-19T02:03:14;12.48;;;2.67;;
11187;SDS011;5650;52.700;7.306;2023-09-19T02:05:47;9.48;;;2.63;;
11187;SDS011;5650;52.700;7.306;2023-09-19T02:08:16;9.48;;;2.42;;
11187;SDS011;5650;52.700;7.306;2023-09-19T02:10:45;12.68;;;2.78;;
11187;SDS011;5650;52.700;7.306;2023-09-19T02:13:14;13.30;;;2.80;;
11187;SDS011;5650;52.700;7.306;2023-09-19T02:15:44;13.95;;;2.75;;
11187;SDS011;5650;52.700;7.306;2023-09-19T02:18:14;12.90;;;3.03;;
11187;SDS011;5650;52.700;7.306;2023-09-19T02:20:42;10.75;;;2.67;;
11187;SDS011;5650;52.700;7.306;2023-09-19T02:23:09;13.55;;;3.00;;
11187;SDS011;5650;52.700;7.306;2023-09-19T02:25:37;8.43;;;2.50;;
11187;SDS011;5650;52.700;7.306;2023-09-19T02:28:06;9.52;;;2.53;;
11187;SDS011;5650;52.700;7.306;2023-09-19T02:30:37;10.30;;;2.38;;
11187;SDS011;5650;52.700;7.306;2023-09-19T02:33:04;14.18;;;2.90;;
11187;SDS011;5650;52.700;7.306;2023-09-19T02:35:35;9.43;;;2.50;;
11187;SDS011;5650;52.700;7.306;2023-09-19T02:38:03;13.52;;;3.33;;
11187;SDS011;5650;52.700;7.306;2023-09-19T02:40:31;10.95;;;2.80;;
11187;SDS011;5650;52.700;7.306;2023-09-19T02:43:09;12.18;;;2.78;;
11187;SDS011;5650;52.700;7.306;2023-09-19T02:45:40;11.20;;;2.67;;
11187;SDS011;5650;52.700;7.306;2023-09-19T02:48:07;14.98;;;2.85;;
11187;SDS011;5650;52.700;7.306;2023-09-19T02:50:38;8.93;;;2.38;;
11187;SDS011;5650;52.700;7.306;2023-09-19T02:53:05;10.18;;;2.67;;
11187;SDS011;5650;52.700;7.306;2023-09-19T02:55:33;10.18;;;2.63;;
11187;SDS011;5650;52.700;7.306;2023-09-19T02:58:09;11.75;;;2.58;;
11187;SDS011;5650;52.700;7.306;2023-09-19T03:00:37;8.82;;;2.55;;
11187;SDS011;5650;52.700;7.306;2023-09-19T03:03:13;11.82;;;2.75;;
11187;SDS011;5650;52.700;7.306;2023-09-19T03:05:42;9.90;;;2.72;;
11187;SDS011;5650;52.700;7.306;2023-09-19T03:08:12;14.23;;;2.70;;
11187;SDS011;5650;52.700;7.306;2023-09-19T03:10:40;10.00;;;2.28;;
11187;SDS011;5650;52.700;7.306;2023-09-19T03:13:07;13.27;;;3.17;;
11187;SDS011;5650;52.700;7.306;2023-09-19T03:15:40;6.00;;;2.05;;
11187;SDS011;5650;52.700;7.306;2023-09-19T03:18:09;9.32;;;2.63;;
11187;SDS011;5650;52.700;7.306;2023-09-19T03:20:41;9.77;;;2.45;;
11187;SDS011;5650;52.700;7.306;2023-09-19T03:23:20;14.05;;;2.50;;
11187;SDS011;5650;52.700;7.306;2023-09-19T03:25:47;11.55;;;2.58;;
11187;SDS011;5650;52.700;7.306;2023-09-19T03:28:15;10.60;;;3.03;;
11187;SDS011;5650;52.700;7.306;2023-09-19T03:30:46;8.80;;;2.30;;
11187;SDS011;5650;52.700;7.306;2023-09-19T03:33:27;16.60;;;2.92;;
11187;SDS011;5650;52.700;7.306;2023-09-19T03:35:58;11.52;;;2.80;;
11187;SDS011;5650;52.700;7.306;2023-09-19T03:38:26;9.60;;;3.05;;
11187;SDS011;5650;52.700;7.306;2023-09-19T03:40:56;12.80;;;3.03;;
11187;SDS011;5650;52.700;7.306;2023-09-19T03:43:23;13.80;;;3.03;;
11187;SDS011;5650;52.700;7.306;2023-09-19T03:45:54;9.70;;;2.85;;
11187;SDS011;5650;52.700;7.306;2023-09-19T03:48:21;14.18;;;2.88;;
11187;SDS011;5650;52.700;7.306;2023-09-19T03:50:48;9.00;;;2.75;;
11187;SDS011;5650;52.700;7.306;2023-09-19T03:53:20;13.57;;;3.05;;
11187;SDS011;5650;52.700;7.306;2023-09-19T03:55:47;11.23;;;2.67;;
11187;SDS011;5650;52.700;7.306;2023-09-19T03:58:21;14.50;;;3.35;;
11187;SDS011;5650;52.700;7.306;2023-09-19T04:00:48;7.82;;;2.50;;
11187;SDS011;5650;52.700;7.306;2023-09-19T04:03:16;10.57;;;3.17;;
11187;SDS011;5650;52.700;7.306;2023-09-19T04:05:45;12.88;;;2.88;;
11187;SDS011;5650;52.700;7.306;2023-09-19T04:08:13;16.48;;;3.15;;
11187;SDS011;5650;52.700;7.306;2023-09-19T04:10:43;16.67;;;3.40;;
11187;SDS011;5650;52.700;7.306;2023-09-19T04:13:10;9.45;;;3.22;;
11187;SDS011;5650;52.700;7.306;2023-09-19T04:15:38;11.50;;;3.40;;
11187;SDS011;5650;52.700;7.306;2023-09-19T04:18:05;10.20;;;3.00;;
11187;SDS011;5650;52.700;7.306;2023-09-19T04:20:34;9.98;;;3.03;;
11187;SDS011;5650;52.700;7.306;2023-09-19T04:23:02;12.73;;;3.28;;
11187;SDS011;5650;52.700;7.306;2023-09-19T04:25:30;10.90;;;3.35;;
11187;SDS011;5650;52.700;7.306;2023-09-19T04:27:59;9.98;;;3.20;;
11187;SDS011;5650;52.700;7.306;2023-09-19T04:30:26;12.88;;;3.50;;
11187;SDS011;5650;52.700;7.306;2023-09-19T04:32:54;14.35;;;3.65;;
11187;SDS011;5650;52.700;7.306;2023-09-19T04:35:21;9.85;;;2.80;;
11187;SDS011;5650;52.700;7.306;2023-09-19T04:37:50;14.15;;;3.25;;
11187;SDS011;5650;52.700;7.306;2023-09-19T04:40:18;15.65;;;3.58;;
11187;SDS011;5650;52.700;7.306;2023-09-19T04:42:45;15.45;;;3.53;;
11187;SDS011;5650;52.700;7.306;2023-09-19T04:45:22;16.27;;;3.55;;
11187;SDS011;5650;52.700;7.306;2023-09-19T04:47:49;12.95;;;3.55;;
11187;SDS011;5650;52.700;7.306;2023-09-19T04:50:17;19.85;;;3.80;;
11187;SDS011;5650;52.700;7.306;2023-09-19T04:52:44;15.77;;;3.63;;
11187;SDS011;5650;52.700;7.306;2023-09-19T04:55:16;9.00;;;2.78;;
11187;SDS011;5650;52.700;7.306;2023-09-19T04:57:44;13.93;;;3.38;;
11187;SDS011;5650;52.700;7.306;2023-09-19T05:00:12;15.52;;;4.03;;
11187;SDS011;5650;52.700;7.306;2023-09-19T05:02:45;17.70;;;3.85;;
11187;SDS011;5650;52.700;7.306;2023-09-19T05:05:15;11.80;;;3.40;;
11187;SDS011;5650;52.700;7.306;2023-09-19T05:07:44;15.23;;;3.63;;
11187;SDS011;5650;52.700;7.306;2023-09-19T05:10:12;15.50;;;3.58;;
11187;SDS011;5650;52.700;7.306;2023-09-19T05:12:39;15.27;;;3.70;;
11187;SDS011;5650;52.700;7.306;2023-09-19T05:15:10;13.45;;;3.65;;
11187;SDS011;5650;52.700;7.306;2023-09-19T05:17:37;18.90;;;3.67;;
11187;SDS011;5650;52.700;7.306;2023-09-19T05:20:06;13.60;;;3.38;;
11187;SDS011;5650;52.700;7.306;2023-09-19T05:22:47;15.45;;;3.38;;
11187;SDS011;5650;52.700;7.306;2023-09-19T05:25:15;11.70;;;3.40;;
11187;SDS011;5650;52.700;7.306;2023-09-19T05:27:43;24.25;;;4.00;;
11187;SDS011;5650;52.700;7.306;2023-09-19T05:30:11;11.57;;;3.10;;
11187;SDS011;5650;52.700;7.306;2023-09-19T05:32:41;11.75;;;3.35;;
11187;SDS011;5650;52.700;7.306;2023-09-19T05:35:28;12.25;;;3.03;;
11187;SDS011;5650;52.700;7.306;2023-09-19T05:37:56;20.50;;;3.63;;
11187;SDS011;5650;52.700;7.306;2023-09-19T05:40:25;18.65;;;3.40;;
11187;SDS011;5650;52.700;7.306;2023-09-19T05:42:52;12.13;;;3.38;;
11187;SDS011;5650;52.700;7.306;2023-09-19T05:45:19;14.48;;;3.60;;
11187;SDS011;5650;52.700;7.306;2023-09-19T05:47:53;13.90;;;3.67;;
11187;SDS011;5650;52.700;7.306;2023-09-19T05:50:21;12.65;;;3.45;;
11187;SDS011;5650;52.700;7.306;2023-09-19T05:52:54;14.25;;;3.00;;
11187;SDS011;5650;52.700;7.306;2023-09-19T05:55:32;17.25;;;3.65;;
11187;SDS011;5650;52.700;7.306;2023-09-19T05:58:06;13.90;;;3.55;;
11187;SDS011;5650;52.700;7.306;2023-09-19T06:00:38;20.77;;;3.58;;
11187;SDS011;5650;52.700;7.306;2023-09-19T06:03:06;15.48;;;3.45;;
11187;SDS011;5650;52.700;7.306;2023-09-19T06:05:36;14.70;;;3.63;;
11187;SDS011;5650;52.700;7.306;2023-09-19T06:08:08;12.38;;;3.28;;
11187;SDS011;5650;52.700;7.306;2023-09-19T06:10:38;19.30;;;3.15;;
11187;SDS011;5650;52.700;7.306;2023-09-19T06:13:08;11.68;;;2.70;;
11187;SDS011;5650;52.700;7.306;2023-09-19T06:15:38;15.88;;;3.95;;
11187;SDS011;5650;52.700;7.306;2023-09-19T06:18:15;13.32;;;3.25;;
11187;SDS011;5650;52.700;7.306;2023-09-19T06:20:44;15.68;;;3.53;;
11187;SDS011;5650;52.700;7.306;2023-09-19T06:23:16;14.43;;;3.50;;
11187;SDS011;5650;52.700;7.306;2023-09-19T06:25:48;14.38;;;3.38;;
11187;SDS011;5650;52.700;7.306;2023-09-19T06:28:18;17.50;;;3.35;;
11187;SDS011;5650;52.700;7.306;2023-09-19T06:30:49;11.45;;;3.00;;
11187;SDS011;5650;52.700;7.306;2023-09-19T06:33:16;10.60;;;3.25;;
11187;SDS011;5650;52.700;7.306;2023-09-19T06:35:45;11.35;;;3.10;;
11187;SDS011;5650;52.700;7.306;2023-09-19T06:38:13;16.90;;;4.28;;
11187;SDS011;5650;52.700;7.306;2023-09-19T06:40:42;16.00;;;3.90;;
11187;SDS011;5650;52.700;7.306;2023-09-19T06:43:09;15.18;;;3.13;;
11187;SDS011;5650;52.700;7.306;2023-09-19T06:45:40;13.73;;;3.10;;
11187;SDS011;5650;52.700;7.306;2023-09-19T06:48:07;11.90;;;2.78;;
11187;SDS011;5650;52.700;7.306;2023-09-19T06:50:42;15.38;;;3.60;;
11187;SDS011;5650;52.700;7.306;2023-09-19T06:53:12;9.38;;;2.90;;
11187;SDS011;5650;52.700;7.306;2023-09-19T06:55:42;12.23;;;3.30;;
11187;SDS011;5650;52.700;7.306;2023-09-19T06:58:13;10.27;;;3.20;;
11187;SDS011;5650;52.700;7.306;2023-09-19T07:00:41;13.35;;;3.17;;
11187;SDS011;5650;52.700;7.306;2023-09-19T07:03:15;8.93;;;2.85;;
11187;SDS011;5650;52.700;7.306;2023-09-19T07:05:46;17.00;;;3.05;;
11187;SDS011;5650;52.700;7.306;2023-09-19T07:08:17;11.90;;;3.13;;
11187;SDS011;5650;52.700;7.306;2023-09-19T07:10:46;16.15;;;3.15;;
11187;SDS011;5650;52.700;7.306;2023-09-19T07:13:15;12.20;;;2.78;;
11187;SDS011;5650;52.700;7.306;2023-09-19T07:15:43;12.27;;;3.40;;
11187;SDS011;5650;52.700;7.306;2023-09-19T07:18:12;12.98;;;3.22;;
11187;SDS011;5650;52.700;7.306;2023-09-19T07:20:41;13.57;;;3.22;;
11187;SDS011;5650;52.700;7.306;2023-09-19T07:23:14;11.90;;;3.40;;
11187;SDS011;5650;52.700;7.306;2023-09-19T07:25:47;9.50;;;3.03;;
11187;SDS011;5650;52.700;7.306;2023-09-19T07:28:15;12.27;;;2.65;;
11187;SDS011;5650;52.700;7.306;2023-09-19T07:30:42;9.50;;;3.00;;
11187;SDS011;5650;52.700;7.306;2023-09-19T07:33:09;13.75;;;2.95;;
11187;SDS011;5650;52.700;7.306;2023-09-19T07:35:44;12.05;;;2.97;;
11187;SDS011;5650;52.700;7.306;2023-09-19T07:38:12;13.50;;;3.10;;
11187;SDS011;5650;52.700;7.306;2023-09-19T07:40:40;12.75;;;3.10;;
11187;SDS011;5650;52.700;7.306;2023-09-19T07:43:17;9.02;;;2.88;;
11187;SDS011;5650;52.700;7.306;2023-09-19T07:45:45;14.55;;;2.90;;
11187;SDS011;5650;52.700;7.306;2023-09-19T07:48:12;9.15;;;2.75;;
11187;SDS011;5650;52.700;7.306;2023-09-19T07:50:43;13.18;;;3.03;;
11187;SDS011;5650;52.700;7.306;2023-09-19T07:53:10;12.93;;;3.08;;
11187;SDS011;5650;52.700;7.306;2023-09-19T07:55:48;9.70;;;2.65;;
11187;SDS011;5650;52.700;7.306;2023-09-19T07:58:20;14.55;;;3.25;;
11187;SDS011;5650;52.700;7.306;2023-09-19T08:00:51;8.00;;;2.47;;
11187;SDS011;5650;52.700;7.306;2023-09-19T08:03:18;10.07;;;3.38;;
11187;SDS011;5650;52.700;7.306;2023-09-19T08:05:45;11.27;;;3.15;;
11187;SDS011;5650;52.700;7.306;2023-09-19T08:08:16;13.18;;;2.92;;
11187;SDS011;5650;52.700;7.306;2023-09-19T08:10:52;13.15;;;3.05;;
11187;SDS011;5650;52.700;7.306;2023-09-19T08:13:24;10.38;;;2.50;;
11187;SDS011;5650;52.700;7.306;2023-09-19T08:15:52;9.45;;;3.05;;
11187;SDS011;5650;52.700;7.306;2023-09-19T08:18:22;10.70;;;2.88;;
11187;SDS011;5650;52.700;7.306;2023-09-19T08:20:57;12.07;;;3.08;;
11187;SDS011;5650;52.700;7.306;2023-09-19T08:23:36;14.80;;;3.53;;
11187;SDS011;5650;52.700;7.306;2023-09-19T08:26:09;14.13;;;3.13;;
11187;SDS011;5650;52.700;7.306;2023-09-19T08:28:41;9.85;;;2.83;;
11187;SDS011;5650;52.700;7.306;2023-09-19T08:31:08;11.65;;;3.17;;
11187;SDS011;5650;52.700;7.306;2023-09-19T08:33:39;10.45;;;2.72;;
11187;SDS011;5650;52.700;7.306;2023-09-19T08:36:09;12.10;;;2.85;;
11187;SDS011;5650;52.700;7.306;2023-09-19T08:38:51;10.27;;;3.05;;
11187;SDS011;5650;52.700;7.306;2023-09-19T08:41:18;10.65;;;3.25;;
11187;SDS011;5650;52.700;7.306;2023-09-19T08:43:47;13.82;;;3.28;;
11187;SDS011;5650;52.700;7.306;2023-09-19T08:46:16;13.98;;;3.63;;
11187;SDS011;5650;52.700;7.306;2023-09-19T08:48:45;15.90;;;3.55;;
11187;SDS011;5650;52.700;7.306;2023-09-19T08:51:17;12.68;;;3.40;;
11187;SDS011;5650;52.700;7.306;2023-09-19T08:53:51;10.88;;;2.92;;
11187;SDS011;5650;52.700;7.306;2023-09-19T08:56:21;11.10;;;3.10;;
11187;SDS011;5650;52.700;7.306;2023-09-19T08:58:57;11.70;;;3.47;;
11187;SDS011;5650;52.700;7.306;2023-09-19T09:01:27;11.68;;;2.92;;
11187;SDS011;5650;52.700;7.306;2023-09-19T09:03:55;22.13;;;3.70;;
11187;SDS011;5650;52.700;7.306;2023-09-19T09:06:23;13.88;;;3.08;;
11187;SDS011;5650;52.700;7.306;2023-09-19T09:08:56;15.50;;;3.15;;
11187;SDS011;5650;52.700;7.306;2023-09-19T09:11:23;14.45;;;3.55;;
11187;SDS011;5650;52.700;7.306;2023-09-19T09:13:53;11.23;;;3.38;;
11187;SDS011;5650;52.700;7.306;2023-09-19T09:16:22;18.85;;;3.38;;
11187;SDS011;5650;52.700;7.306;2023-09-19T09:18:51;19.33;;;3.50;;
11187;SDS011;5650;52.700;7.306;2023-09-19T09:21:19;15.77;;;2.65;;
11187;SDS011;5650;52.700;7.306;2023-09-19T09:23:47;19.05;;;3.80;;
11187;SDS011;5650;52.700;7.306;2023-09-19T09:26:17;11.63;;;3.22;;
11187;SDS011;5650;52.700;7.306;2023-09-19T09:29:14;12.63;;;3.03;;
11187;SDS011;5650;52.700;7.306;2023-09-19T09:31:43;12.40;;;2.80;;
11187;SDS011;5650;52.700;7.306;2023-09-19T09:34:13;13.65;;;3.30;;
11187;SDS011;5650;52.700;7.306;2023-09-19T09:36:41;14.27;;;3.45;;
11187;SDS011;5650;52.700;7.306;2023-09-19T09:39:28;11.38;;;2.75;;
11187;SDS011;5650;52.700;7.306;2023-09-19T09:42:06;12.43;;;3.33;;
11187;SDS011;5650;52.700;7.306;2023-09-19T09:44:35;14.32;;;3.25;;
11187;SDS011;5650;52.700;7.306;2023-09-19T09:47:15;13.80;;;3.83;;
11187;SDS011;5650;52.700;7.306;2023-09-19T09:50:10;9.73;;;3.00;;
11187;SDS011;5650;52.700;7.306;2023-09-19T09:52:51;17.60;;;4.13;;
11187;SDS011;5650;52.700;7.306;2023-09-19T09:55:20;13.25;;;3.30;;
11187;SDS011;5650;52.700;7.306;2023-09-19T09:57:48;12.57;;;3.33;;
11187;SDS011;5650;52.700;7.306;2023-09-19T10:00:51;10.23;;;3.22;;
11187;SDS011;5650;52.700;7.306;2023-09-19T10:03:24;14.80;;;3.85;;
11187;SDS011;5650;52.700;7.306;2023-09-19T10:05:59;13.73;;;3.72;;
11187;SDS011;5650;52.700;7.306;2023-09-19T10:08:34;9.68;;;2.83;;
11187;SDS011;5650;52.700;7.306;2023-09-19T10:11:13;13.35;;;3.60;;
11187;SDS011;5650;52.700;7.306;2023-09-19T10:13:44;14.25;;;3.38;;
11187;SDS011;5650;52.700;7.306;2023-09-19T10:16:12;11.40;;;3.28;;
11187;SDS011;5650;52.700;7.306;2023-09-19T10:18:45;17.65;;;3.53;;
11187;SDS011;5650;52.700;7.306;2023-09-19T10:21:17;13.77;;;3.63;;
11187;SDS011;5650;52.700;7.306;2023-09-19T10:23:53;15.18;;;3.10;;
11187;SDS011;5650;52.700;7.306;2023-09-19T10:26:21;15.63;;;3.65;;
11187;SDS011;5650;52.700;7.306;2023-09-19T10:28:56;15.38;;;3.92;;
11187;SDS011;5650;52.700;7.306;2023-09-19T10:31:26;15.23;;;3.25;;
11187;SDS011;5650;52.700;7.306;2023-09-19T10:33:59;15.32;;;3.42;;
11187;SDS011;5650;52.700;7.306;2023-09-19T10:36:31;14.93;;;3.47;;
11187;SDS011;5650;52.700;7.306;2023-09-19T10:39:04;13.95;;;3.85;;
11187;SDS011;5650;52.700;7.306;2023-09-19T10:41:34;10.93;;;3.00;;
11187;SDS011;5650;52.700;7.306;2023-09-19T10:44:03;9.82;;;2.85;;
11187;SDS011;5650;52.700;7.306;2023-09-19T10:46:31;10.52;;;2.75;;
11187;SDS011;5650;52.700;7.306;2023-09-19T10:49:00;12.75;;;3.33;;
11187;SDS011;5650;52.700;7.306;2023-09-19T10:51:29;10.13;;;2.92;;
11187;SDS011;5650;52.700;7.306;2023-09-19T10:54:05;12.80;;;3.30;;
11187;SDS011;5650;52.700;7.306;2023-09-19T10:56:39;12.82;;;3.47;;
11187;SDS011;5650;52.700;7.306;2023-09-19T10:59:13;10.55;;;3.08;;
11187;SDS011;5650;52.700;7.306;2023-09-19T11:01:43;11.88;;;3.20;;
11187;SDS011;5650;52.700;7.306;2023-09-19T11:07:04;13.23;;;3.38;;
11187;SDS011;5650;52.700;7.306;2023-09-19T11:09:44;14.35;;;3.15;;
11187;SDS011;5650;52.700;7.306;2023-09-19T11:12:13;9.05;;;2.90;;
11187;SDS011;5650;52.700;7.306;2023-09-19T11:24:29;12.85;;;3.30;;
11187;SDS011;5650;52.700;7.306;2023-09-19T11:27:10;15.20;;;3.00;;
11187;SDS011;5650;52.700;7.306;2023-09-19T11:29:40;11.70;;;3.28;;
11187;SDS011;5650;52.700;7.306;2023-09-19T11:32:07;7.57;;;2.80;;
11187;SDS011;5650;52.700;7.306;2023-09-19T11:34:42;10.07;;;3.15;;
11187;SDS011;5650;52.700;7.306;2023-09-19T11:40:52;10.63;;;3.00;;
11187;SDS011;5650;52.700;7.306;2023-09-19T11:46:59;11.38;;;2.92;;
11187;SDS011;5650;52.700;7.306;2023-09-19T11:49:29;10.95;;;2.70;;
11187;SDS011;5650;52.700;7.306;2023-09-19T11:51:57;9.07;;;2.60;;
11187;SDS011;5650;52.700;7.306;2023-09-19T11:54:29;9.75;;;2.78;;
11187;SDS011;5650;52.700;7.306;2023-09-19T11:56:59;10.70;;;2.88;;
11187;SDS011;5650;52.700;7.306;2023-09-19T11:59:28;8.85;;;2.90;;
11187;SDS011;5650;52.700;7.306;2023-09-19T12:01:56;12.38;;;2.88;;
11187;SDS011;5650;52.700;7.306;2023-09-19T12:04:34;11.45;;;2.45;;
11187;SDS011;5650;52.700;7.306;2023-09-19T12:07:04;8.60;;;2.78;;
11187;SDS011;5650;52.700;7.306;2023-09-19T12:09:36;13.80;;;3.05;;
11187;SDS011;5650;52.700;7.306;2023-09-19T12:12:10;11.20;;;3.25;;
11187;SDS011;5650;52.700;7.306;2023-09-19T12:14:47;10.07;;;2.55;;
11187;SDS011;5650;52.700;7.306;2023-09-19T12:17:15;9.75;;;2.85;;
11187;SDS011;5650;52.700;7.306;2023-09-19T12:19:49;9.48;;;2.83;;
11187;SDS011;5650;52.700;7.306;2023-09-19T12:22:17;10.88;;;2.83;;
11187;SDS011;5650;52.700;7.306;2023-09-19T12:24:45;10.80;;;2.70;;
11187;SDS011;5650;52.700;7.306;2023-09-19T12:27:14;11.10;;;2.70;;
11187;SDS011;5650;52.700;7.306;2023-09-19T12:29:42;14.38;;;3.00;;
11187;SDS011;5650;52.700;7.306;2023-09-19T12:32:11;7.13;;;2.83;;
11187;SDS011;5650;52.700;7.306;2023-09-19T12:34:42;12.60;;;2.97;;
11187;SDS011;5650;52.700;7.306;2023-09-19T12:37:17;10.98;;;2.60;;
11187;SDS011;5650;52.700;7.306;2023-09-19T12:39:48;8.50;;;2.53;;
11187;SDS011;5650;52.700;7.306;2023-09-19T12:42:22;10.38;;;2.90;;
11187;SDS011;5650;52.700;7.306;2023-09-19T12:45:07;9.90;;;2.55;;
11187;SDS011;5650;52.700;7.306;2023-09-19T12:48:18;17.67;;;3.10;;
11187;SDS011;5650;52.700;7.306;2023-09-19T12:51:01;8.32;;;2.53;;
11187;SDS011;5650;52.700;7.306;2023-09-19T12:53:31;11.50;;;3.08;;
11187;SDS011;5650;52.700;7.306;2023-09-19T12:56:01;12.32;;;3.28;;
11187;SDS011;5650;52.700;7.306;2023-09-19T12:58:47;12.75;;;3.00;;
11187;SDS011;5650;52.700;7.306;2023-09-19T13:01:26;12.88;;;3.08;;
11187;SDS011;5650;52.700;7.306;2023-09-19T13:04:13;11.30;;;2.38;;
11187;SDS011;5650;52.700;7.306;2023-09-19T13:06:43;11.57;;;3.03;;
11187;SDS011;5650;52.700;7.306;2023-09-19T13:09:12;12.07;;;2.80;;
11187;SDS011;5650;52.700;7.306;2023-09-19T13:11:40;13.93;;;3.15;;
11187;SDS011;5650;52.700;7.306;2023-09-19T13:14:17;12.77;;;2.83;;
11187;SDS011;5650;52.700;7.306;2023-09-19T13:16:53;8.20;;;2.80;;
11187;SDS011;5650;52.700;7.306;2023-09-19T13:19:36;14.43;;;2.90;;
11187;SDS011;5650;52.700;7.306;2023-09-19T13:22:05;7.65;;;2.58;;
11187;SDS011;5650;52.700;7.306;2023-09-19T13:24:52;8.95;;;2.35;;
11187;SDS011;5650;52.700;7.306;2023-09-19T13:27:20;10.40;;;2.78;;
11187;SDS011;5650;52.700;7.306;2023-09-19T13:29:48;12.07;;;2.72;;
11187;SDS011;5650;52.700;7.306;2023-09-19T13:32:16;9.10;;;2.50;;
11187;SDS011;5650;52.700;7.306;2023-09-19T13:34:43;13.57;;;2.65;;
11187;SDS011;5650;52.700;7.306;2023-09-19T13:37:11;8.35;;;2.28;;
11187;SDS011;5650;52.700;7.306;2023-09-19T13:39:39;11.68;;;3.20;;
11187;SDS011;5650;52.700;7.306;2023-09-19T13:42:09;7.75;;;2.40;;
11187;SDS011;5650;52.700;7.306;2023-09-19T13:44:38;17.35;;;2.88;;
11187;SDS011;5650;52.700;7.306;2023-09-19T13:47:07;6.65;;;2.05;;
11187;SDS011;5650;52.700;7.306;2023-09-19T13:49:35;8.07;;;2.38;;
11187;SDS011;5650;52.700;7.306;2023-09-19T13:52:03;10.57;;;2.67;;
11187;SDS011;5650;52.700;7.306;2023-09-19T13:54:30;10.75;;;2.55;;
11187;SDS011;5650;52.700;7.306;2023-09-19T13:56:58;11.98;;;2.28;;
11187;SDS011;5650;52.700;7.306;2023-09-19T13:59:26;8.25;;;2.30;;
11187;SDS011;5650;52.700;7.306;2023-09-19T14:01:57;11.00;;;2.55;;
11187;SDS011;5650;52.700;7.306;2023-09-19T14:04:26;12.05;;;2.20;;
11187;SDS011;5650;52.700;7.306;2023-09-19T14:06:54;9.80;;;2.40;;
11187;SDS011;5650;52.700;7.306;2023-09-19T14:09:22;8.48;;;2.25;;
11187;SDS011;5650;52.700;7.306;2023-09-19T14:11:52;5.93;;;1.80;;
11187;SDS011;5650;52.700;7.306;2023-09-19T14:14:19;10.20;;;1.95;;
11187;SDS011;5650;52.700;7.306;2023-09-19T14:16:50;8.77;;;2.20;;
11187;SDS011;5650;52.700;7.306;2023-09-19T14:19:18;11.82;;;3.17;;
11187;SDS011;5650;52.700;7.306;2023-09-19T14:21:47;10.15;;;2.63;;
11187;SDS011;5650;52.700;7.306;2023-09-19T14:24:16;9.07;;;2.88;;
11187;SDS011;5650;52.700;7.306;2023-09-19T14:26:44;15.55;;;2.83;;
11187;SDS011;5650;52.700;7.306;2023-09-19T14:29:12;9.10;;;2.15;;
11187;SDS011;5650;52.700;7.306;2023-09-19T14:31:40;5.53;;;2.10;;
11187;SDS011;5650;52.700;7.306;2023-09-19T14:34:07;8.23;;;2.20;;
11187;SDS011;5650;52.700;7.306;2023-09-19T14:36:36;8.32;;;2.10;;
11187;SDS011;5650;52.700;7.306;2023-09-19T14:39:07;8.15;;;2.53;;
11187;SDS011;5650;52.700;7.306;2023-09-19T14:41:34;10.88;;;2.70;;
11187;SDS011;5650;52.700;7.306;2023-09-19T14:44:06;10.13;;;2.10;;
11187;SDS011;5650;52.700;7.306;2023-09-19T14:46:35;6.40;;;1.88;;
11187;SDS011;5650;52.700;7.306;2023-09-19T14:49:05;8.10;;;2.50;;
11187;SDS011;5650;52.700;7.306;2023-09-19T14:51:35;6.00;;;2.20;;
11187;SDS011;5650;52.700;7.306;2023-09-19T14:54:04;8.48;;;2.58;;
11187;SDS011;5650;52.700;7.306;2023-09-19T14:56:42;6.95;;;2.15;;
11187;SDS011;5650;52.700;7.306;2023-09-19T14:59:18;5.38;;;1.90;;
11187;SDS011;5650;52.700;7.306;2023-09-19T15:01:51;7.15;;;1.67;;
11187;SDS011;5650;52.700;7.306;2023-09-19T15:04:21;6.93;;;2.22;;
11187;SDS011;5650;52.700;7.306;2023-09-19T15:06:49;7.95;;;2.15;;
11187;SDS011;5650;52.700;7.306;2023-09-19T15:09:21;4.93;;;1.80;;
11187;SDS011;5650;52.700;7.306;2023-09-19T15:11:51;7.57;;;1.80;;
11187;SDS011;5650;52.700;7.306;2023-09-19T15:14:18;8.77;;;1.98;;
11187;SDS011;5650;52.700;7.306;2023-09-19T15:16:46;7.07;;;2.17;;
11187;SDS011;5650;52.700;7.306;2023-09-19T15:19:14;5.97;;;2.03;;
11187;SDS011;5650;52.700;7.306;2023-09-19T15:21:41;7.00;;;1.67;;
11187;SDS011;5650;52.700;7.306;2023-09-19T15:24:12;6.57;;;1.70;;
11187;SDS011;5650;52.700;7.306;2023-09-19T15:26:44;6.88;;;1.85;;
11187;SDS011;5650;52.700;7.306;2023-09-19T15:29:14;9.98;;;1.50;;
11187;SDS011;5650;52.700;7.306;2023-09-19T15:31:41;6.90;;;1.98;;
11187;SDS011;5650;52.700;7.306;2023-09-19T15:34:08;8.18;;;2.00;;
11187;SDS011;5650;52.700;7.306;2023-09-19T15:36:39;5.93;;;1.85;;
11187;SDS011;5650;52.700;7.306;2023-09-19T15:39:07;6.28;;;1.55;;
11187;SDS011;5650;52.700;7.306;2023-09-19T15:41:39;5.28;;;1.67;;
11187;SDS011;5650;52.700;7.306;2023-09-19T15:44:15;9.32;;;1.80;;
11187;SDS011;5650;52.700;7.306;2023-09-19T15:46:47;5.90;;;1.50;;
11187;SDS011;5650;52.700;7.306;2023-09-19T15:49:14;7.38;;;1.85;;